sensor_id;sensor_type;location;lat;lon;timestamp;pressure;altitude;pressure_sealevel;temperature;humidity
13690;BME280;6917;52.194;9.894;2023-07-08T00:02:10;101291.75;;;19.14;nan
13690;BME280;6917;52.194;9.894;2023-07-08T00:04:37;101294.75;;;19.09;nan
13690;BME280;6917;52.194;9.894;2023-07-08T00:07:02;101296.75;;;18.96;nan
13690;BME280;6917;52.194;9.894;2023-07-08T00:09:28;101282.09;;;18.83;nan
13690;BME280;6917;52.194;9.894;2023-07-08T00:11:53;101283.94;;;18.67;nan
13690;BME280;6917;52.194;9.894;2023-07-08T00:14:18;101269.63;;;18.53;nan
13690;BME280;6917;52.194;9.894;2023-07-08T00:16:44;101277.78;;;18.49;nan
13690;BME280;6917;52.194;9.894;2023-07-08T00:19:10;101278.69;;;18.41;nan
13690;BME280;6917;52.194;9.894;2023-07-08T00:21:36;101281.19;;;18.22;nan
13690;BME280;6917;52.194;9.894;2023-07-08T00:24:01;101286.16;;;18.16;nan
13690;BME280;6917;52.194;9.894;2023-07-08T00:26:28;101277.13;;;18.07;nan
13690;BME280;6917;52.194;9.894;2023-07-08T00:28:54;101280.56;;;18.04;nan
13690;BME280;6917;52.194;9.894;2023-07-08T00:31:22;101275.06;;;18.16;nan
13690;BME280;6917;52.194;9.894;2023-07-08T00:33:54;101267.94;;;18.15;nan
13690;BME280;6917;52.194;9.894;2023-07-08T00:36:23;101270.13;;;18.09;nan
13690;BME280;6917;52.194;9.894;2023-07-08T00:38:49;101250.75;;;17.76;nan
13690;BME280;6917;52.194;9.894;2023-07-08T00:43:54;101249.56;;;17.03;nan
13690;BME280;6917;52.194;9.894;2023-07-08T00:48:55;101257.63;;;17.49;nan
13690;BME280;6917;52.194;9.894;2023-07-08T00:51:22;101244.38;;;16.72;nan
13690;BME280;6917;52.194;9.894;2023-07-08T00:53:48;101271.38;;;16.95;nan
13690;BME280;6917;52.194;9.894;2023-07-08T00:56:29;101252.06;;;17.16;nan
13690;BME280;6917;52.194;9.894;2023-07-08T00:59:03;101245.19;;;17.22;nan
13690;BME280;6917;52.194;9.894;2023-07-08T01:01:31;101231.44;;;17.14;nan
13690;BME280;6917;52.194;9.894;2023-07-08T01:04:02;101241.81;;;17.17;nan
13690;BME280;6917;52.194;9.894;2023-07-08T01:06:31;101221.56;;;17.13;nan
13690;BME280;6917;52.194;9.894;2023-07-08T01:09:03;101226.72;;;17.14;nan
13690;BME280;6917;52.194;9.894;2023-07-08T01:11:32;101212.66;;;17.07;nan
13690;BME280;6917;52.194;9.894;2023-07-08T01:13:59;101219.00;;;17.08;nan
13690;BME280;6917;52.194;9.894;2023-07-08T01:16:25;101206.09;;;16.91;nan
13690;BME280;6917;52.194;9.894;2023-07-08T01:18:51;101214.25;;;16.87;nan
13690;BME280;6917;52.194;9.894;2023-07-08T01:21:33;101227.28;;;17.08;nan
13690;BME280;6917;52.194;9.894;2023-07-08T01:24:02;101233.06;;;17.15;nan
13690;BME280;6917;52.194;9.894;2023-07-08T01:26:29;101221.50;;;17.21;nan
13690;BME280;6917;52.194;9.894;2023-07-08T01:28:56;101204.38;;;17.07;nan
13690;BME280;6917;52.194;9.894;2023-07-08T01:31:22;101192.13;;;16.96;nan
13690;BME280;6917;52.194;9.894;2023-07-08T01:33:48;101204.34;;;16.86;nan
13690;BME280;6917;52.194;9.894;2023-07-08T01:36:14;101198.25;;;16.81;nan
13690;BME280;6917;52.194;9.894;2023-07-08T01:38:40;101211.41;;;16.75;nan
13690;BME280;6917;52.194;9.894;2023-07-08T01:41:11;101216.28;;;16.78;nan
13690;BME280;6917;52.194;9.894;2023-07-08T01:43:36;101207.47;;;16.85;nan
13690;BME280;6917;52.194;9.894;2023-07-08T01:46:02;101219.09;;;16.90;nan
13690;BME280;6917;52.194;9.894;2023-07-08T01:48:37;101210.47;;;16.92;nan
13690;BME280;6917;52.194;9.894;2023-07-08T01:51:05;101219.72;;;16.96;nan
13690;BME280;6917;52.194;9.894;2023-07-08T01:53:36;101210.44;;;17.01;nan
13690;BME280;6917;52.194;9.894;2023-07-08T01:56:02;101198.31;;;16.93;nan
13690;BME280;6917;52.194;9.894;2023-07-08T01:58:28;101199.50;;;16.83;nan
13690;BME280;6917;52.194;9.894;2023-07-08T02:00:54;101202.63;;;16.82;nan
13690;BME280;6917;52.194;9.894;2023-07-08T02:03:20;101170.91;;;16.58;nan
13690;BME280;6917;52.194;9.894;2023-07-08T02:05:45;101180.53;;;16.52;nan
13690;BME280;6917;52.194;9.894;2023-07-08T02:08:10;101185.72;;;16.54;nan
13690;BME280;6917;52.194;9.894;2023-07-08T02:10:37;101193.78;;;16.59;nan
13690;BME280;6917;52.194;9.894;2023-07-08T02:13:03;101180.38;;;16.49;nan
13690;BME280;6917;52.194;9.894;2023-07-08T02:15:29;101173.00;;;16.61;nan
13690;BME280;6917;52.194;9.894;2023-07-08T02:17:54;101175.47;;;16.54;nan
13690;BME280;6917;52.194;9.894;2023-07-08T02:20:20;101181.66;;;16.51;nan
13690;BME280;6917;52.194;9.894;2023-07-08T02:22:45;101182.66;;;16.47;nan
13690;BME280;6917;52.194;9.894;2023-07-08T02:25:10;101190.56;;;16.57;nan
13690;BME280;6917;52.194;9.894;2023-07-08T02:27:36;101184.69;;;16.67;nan
13690;BME280;6917;52.194;9.894;2023-07-08T02:30:02;101197.34;;;16.59;nan
13690;BME280;6917;52.194;9.894;2023-07-08T02:32:28;101200.41;;;16.66;nan
13690;BME280;6917;52.194;9.894;2023-07-08T02:34:53;101208.66;;;16.75;nan
13690;BME280;6917;52.194;9.894;2023-07-08T02:37:18;101191.69;;;16.56;nan
13690;BME280;6917;52.194;9.894;2023-07-08T02:39:44;101186.28;;;16.39;nan
13690;BME280;6917;52.194;9.894;2023-07-08T02:42:09;101197.06;;;16.52;nan
13690;BME280;6917;52.194;9.894;2023-07-08T02:44:34;101196.06;;;16.57;nan
13690;BME280;6917;52.194;9.894;2023-07-08T02:46:59;101160.16;;;16.06;nan
13690;BME280;6917;52.194;9.894;2023-07-08T02:49:25;101179.66;;;15.93;nan
13690;BME280;6917;52.194;9.894;2023-07-08T02:51:50;101184.78;;;16.12;nan
13690;BME280;6917;52.194;9.894;2023-07-08T02:54:16;101187.78;;;16.27;nan
13690;BME280;6917;52.194;9.894;2023-07-08T02:56:41;101193.31;;;16.27;nan
13690;BME280;6917;52.194;9.894;2023-07-08T02:59:06;101186.28;;;16.39;nan
13690;BME280;6917;52.194;9.894;2023-07-08T03:01:31;101143.38;;;15.82;nan
13690;BME280;6917;52.194;9.894;2023-07-08T03:03:59;101160.72;;;15.83;nan
13690;BME280;6917;52.194;9.894;2023-07-08T03:06:25;101166.94;;;15.62;nan
13690;BME280;6917;52.194;9.894;2023-07-08T03:08:50;101182.81;;;15.48;nan
13690;BME280;6917;52.194;9.894;2023-07-08T03:11:16;101168.22;;;15.47;nan
13690;BME280;6917;52.194;9.894;2023-07-08T03:13:41;101170.50;;;15.28;nan
13690;BME280;6917;52.194;9.894;2023-07-08T03:16:07;101166.81;;;15.07;nan
13690;BME280;6917;52.194;9.894;2023-07-08T03:18:38;101174.56;;;15.13;nan
13690;BME280;6917;52.194;9.894;2023-07-08T03:21:10;101204.84;;;15.31;nan
13690;BME280;6917;52.194;9.894;2023-07-08T03:23:37;101183.50;;;15.19;nan
13690;BME280;6917;52.194;9.894;2023-07-08T03:26:02;101178.28;;;15.00;nan
13690;BME280;6917;52.194;9.894;2023-07-08T03:28:27;101186.06;;;15.24;nan
13690;BME280;6917;52.194;9.894;2023-07-08T03:30:53;101197.53;;;15.43;nan
13690;BME280;6917;52.194;9.894;2023-07-08T03:33:18;101193.00;;;15.56;nan
13690;BME280;6917;52.194;9.894;2023-07-08T03:35:43;101171.31;;;15.37;nan
13690;BME280;6917;52.194;9.894;2023-07-08T03:38:10;101160.16;;;15.16;nan
13690;BME280;6917;52.194;9.894;2023-07-08T03:40:35;101171.34;;;15.11;nan
13690;BME280;6917;52.194;9.894;2023-07-08T03:43:00;101171.97;;;15.00;nan
13690;BME280;6917;52.194;9.894;2023-07-08T03:45:26;101181.06;;;14.92;nan
13690;BME280;6917;52.194;9.894;2023-07-08T03:47:51;101187.69;;;14.99;nan
13690;BME280;6917;52.194;9.894;2023-07-08T03:50:22;101184.91;;;15.16;nan
13690;BME280;6917;52.194;9.894;2023-07-08T03:52:48;101190.59;;;15.37;nan
13690;BME280;6917;52.194;9.894;2023-07-08T03:55:14;101194.66;;;15.48;nan
13690;BME280;6917;52.194;9.894;2023-07-08T03:57:40;101199.66;;;15.55;nan
13690;BME280;6917;52.194;9.894;2023-07-08T04:00:06;101187.19;;;15.40;nan
13690;BME280;6917;52.194;9.894;2023-07-08T04:02:41;101187.06;;;15.20;nan
13690;BME280;6917;52.194;9.894;2023-07-08T04:05:12;101189.94;;;15.14;nan
13690;BME280;6917;52.194;9.894;2023-07-08T04:07:38;101188.00;;;14.98;nan
13690;BME280;6917;52.194;9.894;2023-07-08T04:10:04;101192.22;;;14.95;nan
13690;BME280;6917;52.194;9.894;2023-07-08T04:12:29;101199.19;;;15.10;nan
13690;BME280;6917;52.194;9.894;2023-07-08T04:14:55;101207.94;;;15.38;nan
13690;BME280;6917;52.194;9.894;2023-07-08T04:17:20;101213.59;;;15.50;nan
13690;BME280;6917;52.194;9.894;2023-07-08T04:19:48;101217.63;;;15.61;nan
13690;BME280;6917;52.194;9.894;2023-07-08T04:22:13;101232.38;;;15.83;nan
13690;BME280;6917;52.194;9.894;2023-07-08T04:24:39;101241.91;;;15.94;nan
13690;BME280;6917;52.194;9.894;2023-07-08T04:27:04;101236.59;;;15.80;nan
13690;BME280;6917;52.194;9.894;2023-07-08T04:29:30;101231.56;;;15.82;nan
13690;BME280;6917;52.194;9.894;2023-07-08T04:31:55;101226.06;;;15.73;nan
13690;BME280;6917;52.194;9.894;2023-07-08T04:34:20;101221.34;;;15.74;nan
13690;BME280;6917;52.194;9.894;2023-07-08T04:36:46;101236.59;;;15.80;nan
13690;BME280;6917;52.194;9.894;2023-07-08T04:39:12;101228.75;;;15.91;nan
13690;BME280;6917;52.194;9.894;2023-07-08T04:41:39;101227.97;;;15.90;nan
13690;BME280;6917;52.194;9.894;2023-07-08T04:44:07;101226.66;;;15.96;nan
13690;BME280;6917;52.194;9.894;2023-07-08T04:46:36;101233.47;;;15.99;nan
13690;BME280;6917;52.194;9.894;2023-07-08T04:49:05;101214.50;;;15.97;nan
13690;BME280;6917;52.194;9.894;2023-07-08T04:51:31;101242.84;;;16.06;nan
13690;BME280;6917;52.194;9.894;2023-07-08T04:53:57;101253.19;;;16.18;nan
13690;BME280;6917;52.194;9.894;2023-07-08T04:56:22;101257.00;;;16.43;nan
13690;BME280;6917;52.194;9.894;2023-07-08T04:58:48;101255.84;;;16.44;nan
13690;BME280;6917;52.194;9.894;2023-07-08T05:01:14;101252.75;;;16.46;nan
13690;BME280;6917;52.194;9.894;2023-07-08T05:03:39;101268.59;;;16.66;nan
13690;BME280;6917;52.194;9.894;2023-07-08T05:06:04;101251.22;;;16.65;nan
13690;BME280;6917;52.194;9.894;2023-07-08T05:08:30;101271.50;;;16.70;nan
13690;BME280;6917;52.194;9.894;2023-07-08T05:10:55;101269.69;;;16.74;nan
13690;BME280;6917;52.194;9.894;2023-07-08T05:13:20;101269.56;;;16.70;nan
13690;BME280;6917;52.194;9.894;2023-07-08T05:15:48;101267.47;;;16.67;nan
13690;BME280;6917;52.194;9.894;2023-07-08T05:18:13;101268.56;;;16.75;nan
13690;BME280;6917;52.194;9.894;2023-07-08T05:20:38;101288.09;;;16.90;nan
13690;BME280;6917;52.194;9.894;2023-07-08T05:23:04;101259.56;;;16.86;nan
13690;BME280;6917;52.194;9.894;2023-07-08T05:25:31;101270.59;;;16.86;nan
13690;BME280;6917;52.194;9.894;2023-07-08T05:27:57;101267.50;;;16.88;nan
13690;BME280;6917;52.194;9.894;2023-07-08T05:30:22;101264.41;;;16.89;nan
13690;BME280;6917;52.194;9.894;2023-07-08T05:32:47;101262.66;;;16.85;nan
13690;BME280;6917;52.194;9.894;2023-07-08T05:35:13;101268.44;;;16.92;nan
13690;BME280;6917;52.194;9.894;2023-07-08T05:37:38;101254.34;;;16.93;nan
13690;BME280;6917;52.194;9.894;2023-07-08T05:40:06;101265.97;;;16.99;nan
13690;BME280;6917;52.194;9.894;2023-07-08T05:42:32;101265.13;;;17.07;nan
13690;BME280;6917;52.194;9.894;2023-07-08T05:44:57;101266.06;;;17.11;nan
13690;BME280;6917;52.194;9.894;2023-07-08T05:47:22;101267.13;;;17.19;nan
13690;BME280;6917;52.194;9.894;2023-07-08T05:49:48;101269.38;;;17.25;nan
13690;BME280;6917;52.194;9.894;2023-07-08T05:52:13;101275.16;;;17.33;nan
13690;BME280;6917;52.194;9.894;2023-07-08T05:54:40;101273.75;;;17.27;nan
13690;BME280;6917;52.194;9.894;2023-07-08T05:57:07;101280.63;;;17.41;nan
13690;BME280;6917;52.194;9.894;2023-07-08T05:59:34;101290.72;;;17.58;nan
13690;BME280;6917;52.194;9.894;2023-07-08T06:01:59;101295.66;;;17.73;nan
13690;BME280;6917;52.194;9.894;2023-07-08T06:04:25;101283.94;;;17.76;nan
13690;BME280;6917;52.194;9.894;2023-07-08T06:06:50;101286.63;;;17.85;nan
13690;BME280;6917;52.194;9.894;2023-07-08T06:09:15;101292.06;;;17.94;nan
13690;BME280;6917;52.194;9.894;2023-07-08T06:11:41;101286.28;;;17.87;nan
13690;BME280;6917;52.194;9.894;2023-07-08T06:14:06;101285.63;;;18.02;nan
13690;BME280;6917;52.194;9.894;2023-07-08T06:16:31;101288.78;;;18.12;nan
13690;BME280;6917;52.194;9.894;2023-07-08T06:18:59;101294.00;;;18.26;nan
13690;BME280;6917;52.194;9.894;2023-07-08T06:21:25;101291.47;;;18.33;nan
13690;BME280;6917;52.194;9.894;2023-07-08T06:23:50;101288.50;;;18.38;nan
13690;BME280;6917;52.194;9.894;2023-07-08T06:26:15;101296.72;;;18.59;nan
13690;BME280;6917;52.194;9.894;2023-07-08T06:28:41;101292.69;;;18.57;nan
13690;BME280;6917;52.194;9.894;2023-07-08T06:31:06;101281.84;;;18.52;nan
13690;BME280;6917;52.194;9.894;2023-07-08T06:33:31;101286.22;;;18.65;nan
13690;BME280;6917;52.194;9.894;2023-07-08T06:35:56;101285.44;;;18.77;nan
13690;BME280;6917;52.194;9.894;2023-07-08T06:38:22;101303.09;;;18.84;nan
13690;BME280;6917;52.194;9.894;2023-07-08T06:40:47;101293.63;;;18.85;nan
13690;BME280;6917;52.194;9.894;2023-07-08T06:43:12;101298.22;;;18.93;nan
13690;BME280;6917;52.194;9.894;2023-07-08T06:45:37;101273.91;;;18.99;nan
13690;BME280;6917;52.194;9.894;2023-07-08T06:48:03;101286.44;;;19.09;nan
13690;BME280;6917;52.194;9.894;2023-07-08T06:50:30;101294.03;;;19.24;nan
13690;BME280;6917;52.194;9.894;2023-07-08T06:52:55;101294.94;;;19.40;nan
13690;BME280;6917;52.194;9.894;2023-07-08T06:55:21;101302.31;;;19.60;nan
13690;BME280;6917;52.194;9.894;2023-07-08T06:57:46;101301.66;;;19.79;nan
13690;BME280;6917;52.194;9.894;2023-07-08T07:00:12;101286.16;;;19.78;nan
13690;BME280;6917;52.194;9.894;2023-07-08T07:02:37;101285.94;;;19.83;nan
13690;BME280;6917;52.194;9.894;2023-07-08T07:05:04;101284.25;;;19.95;nan
13690;BME280;6917;52.194;9.894;2023-07-08T07:07:30;101289.72;;;20.07;nan
13690;BME280;6917;52.194;9.894;2023-07-08T07:09:55;101297.03;;;20.27;nan
13690;BME280;6917;52.194;9.894;2023-07-08T07:12:24;101295.56;;;20.45;nan
13690;BME280;6917;52.194;9.894;2023-07-08T07:14:50;101293.94;;;20.60;nan
13690;BME280;6917;52.194;9.894;2023-07-08T07:17:21;101290.16;;;20.68;nan
13690;BME280;6917;52.194;9.894;2023-07-08T07:19:46;101289.09;;;20.73;nan
13690;BME280;6917;52.194;9.894;2023-07-08T07:22:11;101277.44;;;20.83;nan
13690;BME280;6917;52.194;9.894;2023-07-08T07:24:37;101256.97;;;20.56;nan
13690;BME280;6917;52.194;9.894;2023-07-08T07:27:02;101294.72;;;20.92;nan
13690;BME280;6917;52.194;9.894;2023-07-08T07:29:27;101274.53;;;20.95;nan
13690;BME280;6917;52.194;9.894;2023-07-08T07:31:53;101288.41;;;21.11;nan
13690;BME280;6917;52.194;9.894;2023-07-08T07:34:19;101259.28;;;21.05;nan
13690;BME280;6917;52.194;9.894;2023-07-08T07:36:45;101281.91;;;21.23;nan
13690;BME280;6917;52.194;9.894;2023-07-08T07:39:10;101271.44;;;21.32;nan
13690;BME280;6917;52.194;9.894;2023-07-08T07:41:35;101276.56;;;21.49;nan
13690;BME280;6917;52.194;9.894;2023-07-08T07:44:01;101265.50;;;21.53;nan
13690;BME280;6917;52.194;9.894;2023-07-08T07:46:26;101268.50;;;21.63;nan
13690;BME280;6917;52.194;9.894;2023-07-08T07:48:51;101257.56;;;21.71;nan
13690;BME280;6917;52.194;9.894;2023-07-08T07:51:16;101246.91;;;21.76;nan
13690;BME280;6917;52.194;9.894;2023-07-08T07:53:42;101256.28;;;21.87;nan
13690;BME280;6917;52.194;9.894;2023-07-08T07:56:07;101662.44;;;22.00;nan
13690;BME280;6917;52.194;9.894;2023-07-08T07:58:33;101423.50;;;22.17;nan
13690;BME280;6917;52.194;9.894;2023-07-08T08:00:59;101348.03;;;22.22;nan
13690;BME280;6917;52.194;9.894;2023-07-08T08:03:24;101301.59;;;22.07;nan
13690;BME280;6917;52.194;9.894;2023-07-08T08:05:50;101281.94;;;22.19;nan
13690;BME280;6917;52.194;9.894;2023-07-08T08:08:15;101282.84;;;22.46;nan
13690;BME280;6917;52.194;9.894;2023-07-08T08:10:44;101299.09;;;22.67;nan
13690;BME280;6917;52.194;9.894;2023-07-08T08:13:10;101256.38;;;22.82;nan
13690;BME280;6917;52.194;9.894;2023-07-08T08:15:36;101266.41;;;22.87;nan
13690;BME280;6917;52.194;9.894;2023-07-08T08:18:02;101244.75;;;22.80;nan
13690;BME280;6917;52.194;9.894;2023-07-08T08:20:28;101226.66;;;22.67;nan
13690;BME280;6917;52.194;9.894;2023-07-08T08:22:54;101237.91;;;22.74;nan
13690;BME280;6917;52.194;9.894;2023-07-08T08:25:21;101253.38;;;22.95;nan
13690;BME280;6917;52.194;9.894;2023-07-08T08:27:46;101248.59;;;22.95;nan
13690;BME280;6917;52.194;9.894;2023-07-08T08:30:12;101265.81;;;23.01;nan
13690;BME280;6917;52.194;9.894;2023-07-08T08:32:37;101275.31;;;23.26;nan
13690;BME280;6917;52.194;9.894;2023-07-08T08:35:03;101283.88;;;23.40;nan
13690;BME280;6917;52.194;9.894;2023-07-08T08:37:29;101410.09;;;23.34;nan
13690;BME280;6917;52.194;9.894;2023-07-08T08:39:54;101327.28;;;23.38;nan
13690;BME280;6917;52.194;9.894;2023-07-08T08:42:28;101282.88;;;23.56;nan
13690;BME280;6917;52.194;9.894;2023-07-08T08:44:57;101275.63;;;23.78;nan
13690;BME280;6917;52.194;9.894;2023-07-08T08:47:39;101233.75;;;23.78;nan
13690;BME280;6917;52.194;9.894;2023-07-08T08:52:44;101249.97;;;24.02;nan
13690;BME280;6917;52.194;9.894;2023-07-08T08:55:13;101234.44;;;24.04;nan
13690;BME280;6917;52.194;9.894;2023-07-08T09:00:55;101248.84;;;24.51;nan
13690;BME280;6917;52.194;9.894;2023-07-08T09:03:37;101232.09;;;24.54;nan
13690;BME280;6917;52.194;9.894;2023-07-08T09:06:13;101250.53;;;24.66;nan
13690;BME280;6917;52.194;9.894;2023-07-08T09:08:39;101232.31;;;24.31;nan
13690;BME280;6917;52.194;9.894;2023-07-08T09:11:45;101252.97;;;24.71;nan
13690;BME280;6917;52.194;9.894;2023-07-08T09:14:16;101237.34;;;24.63;nan
13690;BME280;6917;52.194;9.894;2023-07-08T09:19:26;101233.41;;;24.71;nan
13690;BME280;6917;52.194;9.894;2023-07-08T09:22:02;101221.00;;;24.65;nan
13690;BME280;6917;52.194;9.894;2023-07-08T09:24:34;101219.50;;;24.78;nan
13690;BME280;6917;52.194;9.894;2023-07-08T09:27:03;101228.47;;;25.05;nan
13690;BME280;6917;52.194;9.894;2023-07-08T09:29:29;101226.09;;;25.14;nan
13690;BME280;6917;52.194;9.894;2023-07-08T09:31:55;101224.97;;;25.26;nan
13690;BME280;6917;52.194;9.894;2023-07-08T09:34:23;101201.38;;;25.20;nan
13690;BME280;6917;52.194;9.894;2023-07-08T09:37:00;101191.44;;;25.33;nan
13690;BME280;6917;52.194;9.894;2023-07-08T09:39:26;101179.75;;;25.17;nan
13690;BME280;6917;52.194;9.894;2023-07-08T09:41:52;101185.78;;;25.23;nan
13690;BME280;6917;52.194;9.894;2023-07-08T09:44:24;101189.44;;;25.34;nan
13690;BME280;6917;52.194;9.894;2023-07-08T09:46:56;101204.28;;;25.48;nan
13690;BME280;6917;52.194;9.894;2023-07-08T09:49:31;101448.59;;;25.60;nan
13690;BME280;6917;52.194;9.894;2023-07-08T09:51:57;101342.34;;;25.74;nan
13690;BME280;6917;52.194;9.894;2023-07-08T09:54:24;101261.66;;;26.04;nan
13690;BME280;6917;52.194;9.894;2023-07-08T09:57:04;101218.03;;;25.93;nan
13690;BME280;6917;52.194;9.894;2023-07-08T09:59:39;101247.69;;;26.19;nan
13690;BME280;6917;52.194;9.894;2023-07-08T10:02:45;101232.06;;;26.46;nan
13690;BME280;6917;52.194;9.894;2023-07-08T10:05:30;101229.25;;;26.60;nan
13690;BME280;6917;52.194;9.894;2023-07-08T10:07:57;101200.44;;;26.46;nan
13690;BME280;6917;52.194;9.894;2023-07-08T10:10:34;101228.44;;;26.85;nan
13690;BME280;6917;52.194;9.894;2023-07-08T10:13:03;101226.81;;;26.98;nan
13690;BME280;6917;52.194;9.894;2023-07-08T10:15:37;101203.56;;;27.01;nan
13690;BME280;6917;52.194;9.894;2023-07-08T10:18:04;101207.19;;;26.94;nan
13690;BME280;6917;52.194;9.894;2023-07-08T10:21:06;101198.34;;;27.03;nan
13690;BME280;6917;52.194;9.894;2023-07-08T10:26:29;101191.03;;;27.31;nan
13690;BME280;6917;52.194;9.894;2023-07-08T10:29:22;101193.03;;;27.37;nan
13690;BME280;6917;52.194;9.894;2023-07-08T10:31:59;101173.38;;;27.37;nan
13690;BME280;6917;52.194;9.894;2023-07-08T10:34:45;101428.38;;;27.56;nan
13690;BME280;6917;52.194;9.894;2023-07-08T10:37:29;101261.00;;;27.84;nan
13690;BME280;6917;52.194;9.894;2023-07-08T10:45:31;101194.94;;;28.17;nan
13690;BME280;6917;52.194;9.894;2023-07-08T10:50:59;101190.09;;;28.21;nan
13690;BME280;6917;52.194;9.894;2023-07-08T10:53:54;101182.66;;;28.45;nan
13690;BME280;6917;52.194;9.894;2023-07-08T10:56:34;101182.81;;;28.31;nan
13690;BME280;6917;52.194;9.894;2023-07-08T11:05:05;101176.50;;;28.61;nan
13690;BME280;6917;52.194;9.894;2023-07-08T11:07:43;101161.25;;;28.58;nan
13690;BME280;6917;52.194;9.894;2023-07-08T11:13:00;101142.75;;;28.61;nan
13690;BME280;6917;52.194;9.894;2023-07-08T11:15:44;101153.13;;;28.67;nan
13690;BME280;6917;52.194;9.894;2023-07-08T11:18:22;101153.41;;;28.80;nan
13690;BME280;6917;52.194;9.894;2023-07-08T11:21:06;101284.88;;;28.72;nan
13690;BME280;6917;52.194;9.894;2023-07-08T11:23:43;101190.22;;;28.93;nan
13690;BME280;6917;52.194;9.894;2023-07-08T11:28:51;101146.13;;;29.17;nan
13690;BME280;6917;52.194;9.894;2023-07-08T11:31:18;101123.66;;;28.79;nan
13690;BME280;6917;52.194;9.894;2023-07-08T11:33:45;101124.41;;;28.83;nan
13690;BME280;6917;52.194;9.894;2023-07-08T11:36:12;101139.03;;;29.05;nan
13690;BME280;6917;52.194;9.894;2023-07-08T11:38:51;101135.16;;;29.26;nan
13690;BME280;6917;52.194;9.894;2023-07-08T11:41:20;101145.63;;;29.56;nan
13690;BME280;6917;52.194;9.894;2023-07-08T11:43:49;101129.16;;;29.78;nan
13690;BME280;6917;52.194;9.894;2023-07-08T11:46:27;101125.75;;;29.67;nan
13690;BME280;6917;52.194;9.894;2023-07-08T11:48:56;101111.88;;;29.52;nan
13690;BME280;6917;52.194;9.894;2023-07-08T11:51:32;101111.69;;;29.63;nan
13690;BME280;6917;52.194;9.894;2023-07-08T11:54:20;101108.28;;;29.52;nan
13690;BME280;6917;52.194;9.894;2023-07-08T11:59:24;101107.84;;;29.77;nan
13690;BME280;6917;52.194;9.894;2023-07-08T12:04:23;101099.47;;;29.73;nan
13690;BME280;6917;52.194;9.894;2023-07-08T12:09:30;101081.22;;;29.58;nan
13690;BME280;6917;52.194;9.894;2023-07-08T12:12:03;101106.34;;;29.96;nan
13690;BME280;6917;52.194;9.894;2023-07-08T12:14:31;101115.53;;;30.46;nan
13690;BME280;6917;52.194;9.894;2023-07-08T12:16:56;101119.13;;;30.47;nan
13690;BME280;6917;52.194;9.894;2023-07-08T12:19:23;101104.31;;;30.43;nan
13690;BME280;6917;52.194;9.894;2023-07-08T12:21:51;101115.88;;;30.72;nan
13690;BME280;6917;52.194;9.894;2023-07-08T12:24:17;101085.09;;;30.14;nan
13690;BME280;6917;52.194;9.894;2023-07-08T12:26:43;101097.72;;;30.49;nan
13690;BME280;6917;52.194;9.894;2023-07-08T12:29:11;101379.88;;;30.73;nan
13690;BME280;6917;52.194;9.894;2023-07-08T12:31:39;101165.53;;;30.66;nan
13690;BME280;6917;52.194;9.894;2023-07-08T12:34:11;101126.13;;;30.62;nan
13690;BME280;6917;52.194;9.894;2023-07-08T12:36:37;101110.66;;;30.90;nan
13690;BME280;6917;52.194;9.894;2023-07-08T12:39:02;101079.53;;;30.54;nan
13690;BME280;6917;52.194;9.894;2023-07-08T12:41:30;101091.31;;;30.89;nan
13690;BME280;6917;52.194;9.894;2023-07-08T12:43:57;101089.66;;;31.11;nan
13690;BME280;6917;52.194;9.894;2023-07-08T12:46:23;101082.63;;;30.99;nan
13690;BME280;6917;52.194;9.894;2023-07-08T12:48:49;101162.06;;;30.58;nan
13690;BME280;6917;52.194;9.894;2023-07-08T12:51:20;101133.06;;;31.17;nan
13690;BME280;6917;52.194;9.894;2023-07-08T12:53:47;101101.97;;;30.81;nan
13690;BME280;6917;52.194;9.894;2023-07-08T12:56:12;101102.34;;;30.83;nan
13690;BME280;6917;52.194;9.894;2023-07-08T12:58:42;101077.19;;;30.49;nan
13690;BME280;6917;52.194;9.894;2023-07-08T13:01:08;101073.19;;;30.70;nan
13690;BME280;6917;52.194;9.894;2023-07-08T13:03:41;101060.59;;;30.74;nan
13690;BME280;6917;52.194;9.894;2023-07-08T13:06:09;101078.97;;;30.83;nan
13690;BME280;6917;52.194;9.894;2023-07-08T13:08:37;101074.16;;;31.35;nan
13690;BME280;6917;52.194;9.894;2023-07-08T13:11:05;101036.34;;;30.77;nan
13690;BME280;6917;52.194;9.894;2023-07-08T13:13:48;101062.16;;;31.31;nan
13690;BME280;6917;52.194;9.894;2023-07-08T13:16:15;101023.75;;;30.82;nan
13690;BME280;6917;52.194;9.894;2023-07-08T13:18:41;101030.81;;;30.90;nan
13690;BME280;6917;52.194;9.894;2023-07-08T13:21:10;101008.47;;;30.59;nan
13690;BME280;6917;52.194;9.894;2023-07-08T13:23:38;101027.28;;;30.86;nan
13690;BME280;6917;52.194;9.894;2023-07-08T13:26:20;101015.81;;;30.93;nan
13690;BME280;6917;52.194;9.894;2023-07-08T13:28:46;101006.13;;;30.94;nan
13690;BME280;6917;52.194;9.894;2023-07-08T13:31:19;101035.41;;;31.52;nan
13690;BME280;6917;52.194;9.894;2023-07-08T13:33:47;101028.38;;;31.44;nan
13690;BME280;6917;52.194;9.894;2023-07-08T13:36:13;101007.72;;;30.95;nan
13690;BME280;6917;52.194;9.894;2023-07-08T13:38:41;101178.25;;;30.97;nan
13690;BME280;6917;52.194;9.894;2023-07-08T13:41:07;101074.00;;;31.26;nan
13690;BME280;6917;52.194;9.894;2023-07-08T13:43:36;101056.75;;;31.73;nan
13690;BME280;6917;52.194;9.894;2023-07-08T13:46:03;101058.84;;;31.85;nan
13690;BME280;6917;52.194;9.894;2023-07-08T13:48:33;101047.94;;;31.35;nan
13690;BME280;6917;52.194;9.894;2023-07-08T13:51:14;101039.84;;;31.37;nan
13690;BME280;6917;52.194;9.894;2023-07-08T13:56:13;101016.00;;;31.22;nan
13690;BME280;6917;52.194;9.894;2023-07-08T13:58:43;101018.59;;;30.96;nan
13690;BME280;6917;52.194;9.894;2023-07-08T14:01:16;101015.78;;;31.13;nan
13690;BME280;6917;52.194;9.894;2023-07-08T14:03:42;101032.63;;;31.00;nan
13690;BME280;6917;52.194;9.894;2023-07-08T14:06:14;101021.28;;;30.84;nan
13690;BME280;6917;52.194;9.894;2023-07-08T14:08:40;101030.56;;;31.20;nan
13690;BME280;6917;52.194;9.894;2023-07-08T14:11:06;101032.00;;;31.45;nan
13690;BME280;6917;52.194;9.894;2023-07-08T14:13:31;101031.78;;;31.68;nan
13690;BME280;6917;52.194;9.894;2023-07-08T14:15:56;100999.34;;;31.07;nan